Time;durP1;ratioP1;P1;durP2;ratioP2;P2;SDS_P1;SDS_P2;PMS_P1;PMS_P2;Temp;Humidity;BMP_temperature;BMP_pressure;BME280_temperature;BME280_humidity;BME280_pressure;Samples;Min_cycle;Max_cycle;Signal;HPM_P1;HPM_P2
2023/03/20 00:00:20;;;;;;;2.37;2.20;;;8.70;99.90;;;;;;5065928;28;20984;-67
2023/03/20 00:02:47;;;;;;;2.30;2.10;;;8.70;99.90;;;;;;5067343;28;20613;-67
2023/03/20 00:05:20;;;;;;;3.97;2.30;;;8.70;99.90;;;;;;5068452;28;20669;-67
2023/03/20 00:07:48;;;;;;;1.93;1.80;;;8.70;99.90;;;;;;5068355;28;21149;-68
2023/03/20 00:10:20;;;;;;;2.53;2.33;;;8.70;99.90;;;;;;5066315;28;21159;-67
2023/03/20 00:12:49;;;;;;;2.40;1.73;;;8.60;99.90;;;;;;5067290;28;20657;-67
2023/03/20 00:15:29;;;;;;;2.70;2.50;;;8.60;99.90;;;;;;5067467;28;20651;-67
2023/03/20 00:17:56;;;;;;;1.90;1.63;;;8.60;99.90;;;;;;5063904;28;20686;-67
2023/03/20 00:20:23;;;;;;;1.93;1.60;;;8.60;99.90;;;;;;5066925;28;20648;-67
2023/03/20 00:22:51;;;;;;;7.93;2.03;;;8.60;99.90;;;;;;5068198;28;20625;-67
2023/03/20 00:25:21;;;;;;;1.00;1.00;;;8.60;99.90;;;;;;5066416;28;20657;-67
2023/03/20 00:27:49;;;;;;;2.80;2.60;;;8.50;99.90;;;;;;5067928;28;20630;-67
2023/03/20 00:30:29;;;;;;;1.23;1.10;;;8.60;99.90;;;;;;5066744;28;20653;-67
2023/03/20 00:32:58;;;;;;;1.40;1.23;;;8.60;99.90;;;;;;5069160;28;20627;-67
2023/03/20 00:35:28;;;;;;;1.00;1.00;;;8.50;99.90;;;;;;5065860;28;20656;-67
2023/03/20 00:37:56;;;;;;;1.80;1.67;;;8.50;99.90;;;;;;5066025;28;20629;-68
2023/03/20 00:40:28;;;;;;;1.40;1.30;;;8.60;99.90;;;;;;5066803;28;20633;-67
2023/03/20 00:42:59;;;;;;;3.50;2.80;;;8.50;99.90;;;;;;5066982;28;20632;-67
2023/03/20 00:45:27;;;;;;;1.50;1.40;;;8.40;99.90;;;;;;5065273;28;20679;-67
2023/03/20 00:47:54;;;;;;;1.83;1.57;;;8.30;99.90;;;;;;5067547;28;21002;-67
2023/03/20 00:50:22;;;;;;;2.37;1.93;;;8.30;99.90;;;;;;5077548;28;21182;-66
2023/03/20 00:52:50;;;;;;;2.93;2.60;;;8.30;99.90;;;;;;5084490;28;20617;-66
2023/03/20 00:55:18;;;;;;;3.60;2.60;;;8.20;99.90;;;;;;5069202;28;20637;-67
2023/03/20 00:57:51;;;;;;;4.13;3.30;;;8.30;99.90;;;;;;5068759;28;20625;-67
2023/03/20 01:00:30;;;;;;;2.03;1.90;;;8.30;99.90;;;;;;5067962;28;21254;-67
2023/03/20 01:02:59;;;;;;;2.83;2.30;;;8.20;99.90;;;;;;5068553;28;20629;-66
2023/03/20 01:05:28;;;;;;;2.00;1.83;;;8.30;99.90;;;;;;5069275;28;20788;-67
2023/03/20 01:07:55;;;;;;;1.70;1.60;;;8.30;99.90;;;;;;5070999;28;20633;-67
2023/03/20 01:10:30;;;;;;;2.47;1.77;;;8.40;99.90;;;;;;5067364;28;20642;-67
2023/03/20 01:12:59;;;;;;;1.53;1.10;;;8.40;99.90;;;;;;5068709;28;20629;-67
2023/03/20 01:15:31;;;;;;;6.00;1.83;;;8.40;99.90;;;;;;5067897;28;20665;-67
2023/03/20 01:17:58;;;;;;;1.63;1.53;;;8.40;99.90;;;;;;5053426;28;21150;-67
2023/03/20 01:20:27;;;;;;;1.20;1.10;;;8.40;99.90;;;;;;5066940;28;20675;-67
2023/03/20 01:22:55;;;;;;;1.67;1.57;;;8.40;99.90;;;;;;5068786;28;21221;-66
2023/03/20 01:25:22;;;;;;;1.83;1.73;;;8.40;99.90;;;;;;5075198;28;20714;-67
2023/03/20 01:27:51;;;;;;;0.77;0.77;;;8.50;99.90;;;;;;5068338;28;20621;-67
2023/03/20 01:30:22;;;;;;;1.60;1.50;;;8.60;99.90;;;;;;5067377;28;20667;-66
2023/03/20 01:32:49;;;;;;;0.93;0.93;;;8.60;99.90;;;;;;5068276;28;21194;-67
2023/03/20 01:35:18;;;;;;;1.23;1.17;;;8.80;99.90;;;;;;5067810;28;20999;-67
2023/03/20 01:37:45;;;;;;;1.70;1.60;;;8.60;99.90;;;;;;5068013;28;20622;-67
2023/03/20 01:40:36;;;;;;;1.13;1.03;;;8.60;99.90;;;;;;5055831;28;20988;-67
2023/03/20 01:43:03;;;;;;;1.17;1.17;;;8.60;99.90;;;;;;5065335;28;20629;-68
2023/03/20 01:45:34;;;;;;;1.73;1.30;;;8.60;99.90;;;;;;5068176;28;20680;-67
2023/03/20 01:48:03;;;;;;;1.67;1.20;;;8.70;99.90;;;;;;5065373;28;20618;-68
2023/03/20 01:50:32;;;;;;;1.90;1.80;;;8.60;99.90;;;;;;5067080;28;21218;-67
2023/03/20 01:53:08;;;;;;;1.60;1.50;;;8.60;99.90;;;;;;5068072;28;20628;-67
2023/03/20 01:55:36;;;;;;;1.23;0.97;;;8.60;99.90;;;;;;5057887;28;20677;-67
2023/03/20 01:58:07;;;;;;;0.83;0.83;;;8.60;99.90;;;;;;5066987;28;20626;-68
2023/03/20 02:00:36;;;;;;;0.70;0.70;;;8.50;99.90;;;;;;5067170;28;20661;-67
2023/03/20 02:03:06;;;;;;;1.03;0.97;;;8.60;99.90;;;;;;5067308;28;20632;-67
2023/03/20 02:05:33;;;;;;;1.57;1.40;;;8.60;99.90;;;;;;5075050;28;21414;-68
2023/03/20 02:08:11;;;;;;;0.93;0.93;;;8.50;99.90;;;;;;5067471;28;20637;-67
2023/03/20 02:10:40;;;;;;;0.50;0.50;;;8.50;99.90;;;;;;5066920;28;20656;-67
2023/03/20 02:13:08;;;;;;;0.63;0.60;;;8.40;99.90;;;;;;5067565;28;20708;-67
2023/03/20 02:15:54;;;;;;;0.53;0.53;;;8.40;99.90;;;;;;5066614;28;20668;-67
2023/03/20 02:18:22;;;;;;;0.70;0.50;;;8.30;99.90;;;;;;5066790;28;20706;-67
2023/03/20 02:21:09;;;;;;;0.50;0.50;;;8.30;99.90;;;;;;5068388;28;20645;-67
2023/03/20 02:24:09;;;;;;;0.40;0.40;;;8.30;99.90;;;;;;5063282;28;21299;-66
2023/03/20 02:26:53;;;;;;;0.83;0.50;;;8.30;99.90;;;;;;5068329;28;20675;-67
2023/03/20 02:29:55;;;;;;;0.90;0.77;;;8.30;99.90;;;;;;5064628;28;20748;-67
2023/03/20 02:32:46;;;;;;;1.07;0.97;;;8.50;99.90;;;;;;5053779;28;20641;-67
2023/03/20 02:36:08;;;;;;;1.30;1.20;;;8.00;99.90;;;;;;5066843;28;20636;-67
2023/03/20 02:38:56;;;;;;;0.60;0.60;;;8.30;99.90;;;;;;5054458;28;20633;-67
2023/03/20 02:41:29;;;;;;;0.40;0.40;;;8.30;99.90;;;;;;5067099;28;20653;-66
2023/03/20 02:44:05;;;;;;;0.40;0.40;;;8.20;99.90;;;;;;5066889;28;20614;-67
2023/03/20 02:46:46;;;;;;;0.67;0.30;;;8.20;99.90;;;;;;5065713;28;20676;-67
2023/03/20 02:49:24;;;;;;;0.37;0.37;;;8.20;99.90;;;;;;5066183;28;20747;-67
2023/03/20 02:51:58;;;;;;;0.63;0.50;;;8.20;99.90;;;;;;5074316;28;21680;-66
2023/03/20 02:54:35;;;;;;;0.50;0.50;;;8.10;99.90;;;;;;5072178;28;20720;-67
2023/03/20 02:57:07;;;;;;;0.60;0.53;;;8.20;99.90;;;;;;5066875;28;21081;-67
2023/03/20 02:59:42;;;;;;;0.40;0.33;;;8.10;99.90;;;;;;5065334;28;20742;-67
2023/03/20 03:02:16;;;;;;;0.40;0.27;;;8.10;99.90;;;;;;5066997;28;20703;-67
2023/03/20 03:04:50;;;;;;;0.60;0.60;;;8.10;99.90;;;;;;5067057;28;21213;-67
2023/03/20 03:07:22;;;;;;;0.30;0.30;;;8.10;99.90;;;;;;5060175;28;20719;-67
2023/03/20 03:09:54;;;;;;;0.40;0.40;;;8.10;99.90;;;;;;5065401;28;20620;-67
2023/03/20 03:12:26;;;;;;;0.60;0.43;;;8.10;99.90;;;;;;5066495;28;20744;-67
2023/03/20 03:14:56;;;;;;;0.90;0.73;;;8.10;99.90;;;;;;5066985;28;20686;-67
2023/03/20 03:17:26;;;;;;;2.07;0.90;;;8.10;99.90;;;;;;5066769;28;20649;-67
2023/03/20 03:19:57;;;;;;;1.00;0.70;;;8.10;99.90;;;;;;5064798;28;20637;-67
2023/03/20 03:22:24;;;;;;;0.73;0.67;;;8.10;99.90;;;;;;5066282;28;20649;-67
2023/03/20 03:24:54;;;;;;;0.60;0.40;;;7.80;99.90;;;;;;5071184;28;20625;-68
2023/03/20 03:27:25;;;;;;;0.43;0.43;;;8.10;99.90;;;;;;5070661;28;20680;-66
2023/03/20 03:29:56;;;;;;;0.30;0.30;;;8.10;99.90;;;;;;5069605;28;20744;-67
2023/03/20 03:32:29;;;;;;;0.60;0.43;;;8.10;99.90;;;;;;5072095;28;20653;-66
2023/03/20 03:34:59;;;;;;;0.40;0.40;;;8.10;99.90;;;;;;5090760;28;20622;-67
2023/03/20 03:37:38;;;;;;;0.80;0.80;;;8.10;99.90;;;;;;5074742;28;21067;-67
2023/03/20 03:40:16;;;;;;;1.13;0.50;;;8.10;99.90;;;;;;5069590;28;20683;-67
2023/03/20 03:42:52;;;;;;;1.07;0.97;;;8.10;99.90;;;;;;5070668;28;20721;-68
2023/03/20 03:45:26;;;;;;;0.40;0.40;;;8.20;99.90;;;;;;5069298;28;20625;-67
2023/03/20 03:48:00;;;;;;;1.33;0.77;;;8.10;99.90;;;;;;5070382;28;20617;-67
2023/03/20 03:50:32;;;;;;;0.30;0.30;;;8.00;99.90;;;;;;5070036;28;20640;-67
2023/03/20 03:53:04;;;;;;;0.40;0.33;;;8.10;99.90;;;;;;5069550;28;20617;-67
2023/03/20 03:55:37;;;;;;;0.53;0.53;;;8.10;99.90;;;;;;5070178;28;21059;-67
2023/03/20 03:58:09;;;;;;;0.87;0.47;;;8.10;99.90;;;;;;5062693;28;20643;-67
2023/03/20 04:00:37;;;;;;;1.07;0.50;;;8.10;99.90;;;;;;5070344;28;20744;-68
2023/03/20 04:03:07;;;;;;;0.50;0.40;;;8.10;99.90;;;;;;5070201;28;21008;-67
2023/03/20 04:05:37;;;;;;;1.10;0.93;;;8.10;99.90;;;;;;5070165;28;20657;-67
2023/03/20 04:08:06;;;;;;;0.40;0.30;;;7.90;99.90;;;;;;5067821;28;20626;-67
2023/03/20 04:10:34;;;;;;;0.80;0.53;;;8.00;99.90;;;;;;5069811;28;20651;-67
2023/03/20 04:13:02;;;;;;;0.70;0.70;;;8.00;99.90;;;;;;5069772;28;20626;-67
2023/03/20 04:15:28;;;;;;;0.93;0.70;;;8.00;99.90;;;;;;5068812;28;20742;-67
2023/03/20 04:17:55;;;;;;;0.53;0.53;;;8.10;99.90;;;;;;5068891;28;20617;-67
2023/03/20 04:20:22;;;;;;;0.73;0.50;;;8.10;99.90;;;;;;5066983;28;21051;-66
2023/03/20 04:22:49;;;;;;;1.33;0.60;;;8.10;99.90;;;;;;5067845;28;20608;-67
2023/03/20 04:25:20;;;;;;;0.50;0.40;;;8.10;99.90;;;;;;5068581;28;20607;-67
2023/03/20 04:27:49;;;;;;;0.37;0.27;;;8.00;99.90;;;;;;5075362;28;20621;-67
2023/03/20 04:30:16;;;;;;;0.40;0.37;;;8.10;99.90;;;;;;5087558;28;20608;-67
2023/03/20 04:32:43;;;;;;;1.50;0.80;;;8.20;99.90;;;;;;5077979;28;20628;-67
2023/03/20 04:35:10;;;;;;;0.67;0.60;;;8.20;99.90;;;;;;5067878;28;20609;-67
2023/03/20 04:37:37;;;;;;;0.73;0.73;;;8.20;99.90;;;;;;5068121;28;20622;-67
2023/03/20 04:40:04;;;;;;;0.87;0.73;;;8.20;99.90;;;;;;5066894;28;20977;-67
2023/03/20 04:42:31;;;;;;;0.50;0.40;;;8.20;99.90;;;;;;5077190;28;20656;-67
2023/03/20 04:44:59;;;;;;;0.40;0.40;;;8.20;99.90;;;;;;5085305;28;20664;-67
2023/03/20 04:47:26;;;;;;;0.40;0.30;;;8.20;99.90;;;;;;5072080;28;20677;-67
2023/03/20 04:49:53;;;;;;;0.50;0.50;;;8.20;99.90;;;;;;5066286;28;20629;-68
2023/03/20 04:52:20;;;;;;;0.50;0.40;;;8.00;99.90;;;;;;5082119;28;20645;-68
2023/03/20 04:54:46;;;;;;;0.50;0.50;;;7.90;99.90;;;;;;5067839;28;20716;-67
2023/03/20 04:57:13;;;;;;;0.30;0.30;;;7.80;99.90;;;;;;5067637;28;20748;-68
2023/03/20 04:59:40;;;;;;;0.73;0.73;;;7.90;99.90;;;;;;5066766;28;20636;-66
2023/03/20 05:02:08;;;;;;;0.73;0.60;;;7.90;99.90;;;;;;5067366;28;20653;-67
2023/03/20 05:04:35;;;;;;;0.60;0.50;;;7.90;99.90;;;;;;5076366;28;21220;-67
2023/03/20 05:07:02;;;;;;;1.87;1.00;;;8.00;99.90;;;;;;5077742;28;20680;-67
2023/03/20 05:09:29;;;;;;;0.63;0.63;;;7.90;99.90;;;;;;5071462;28;20620;-67
2023/03/20 05:11:55;;;;;;;0.30;0.23;;;7.90;99.90;;;;;;5067175;28;20649;-66
2023/03/20 05:14:22;;;;;;;1.03;1.00;;;7.80;99.90;;;;;;5030842;28;1062829;-66
2023/03/20 05:16:49;;;;;;;0.30;0.30;;;7.80;99.90;;;;;;5068244;28;20651;-66
2023/03/20 05:19:17;;;;;;;1.10;1.00;;;7.80;99.90;;;;;;5076336;28;21048;-67
2023/03/20 05:21:44;;;;;;;0.53;0.53;;;7.80;99.90;;;;;;5062158;28;20648;-67
2023/03/20 05:24:11;;;;;;;0.60;0.55;;;7.80;99.90;;;;;;5068650;28;20632;-67
2023/03/20 05:26:38;;;;;;;0.73;0.70;;;7.80;99.90;;;;;;5067545;28;20229;-67
2023/03/20 05:29:04;;;;;;;0.80;0.80;;;7.80;99.90;;;;;;5066658;28;20628;-67
2023/03/20 05:31:31;;;;;;;1.00;0.50;;;7.90;99.90;;;;;;5067272;28;20645;-66
2023/03/20 05:33:58;;;;;;;0.97;0.60;;;7.90;99.90;;;;;;5076991;28;20732;-66
2023/03/20 05:36:26;;;;;;;0.40;0.40;;;8.00;99.90;;;;;;5087172;28;20654;-66
2023/03/20 05:38:53;;;;;;;0.53;0.50;;;8.00;99.90;;;;;;5067223;28;20629;-66
2023/03/20 05:41:20;;;;;;;1.37;0.77;;;8.10;99.90;;;;;;5068441;28;20661;-66
2023/03/20 05:43:47;;;;;;;0.40;0.40;;;8.00;99.90;;;;;;5068457;28;20653;-67
2023/03/20 05:46:14;;;;;;;0.80;0.80;;;8.00;99.90;;;;;;5075910;28;20775;-67
2023/03/20 05:48:41;;;;;;;0.97;0.60;;;8.00;99.90;;;;;;5067463;28;21253;-67
2023/03/20 05:51:08;;;;;;;1.20;0.83;;;8.00;99.90;;;;;;5068448;28;20660;-67
2023/03/20 05:53:36;;;;;;;1.47;1.23;;;8.00;99.90;;;;;;5067214;28;20621;-68
2023/03/20 05:56:03;;;;;;;1.43;0.70;;;8.00;99.90;;;;;;5066605;28;21563;-68
2023/03/20 05:58:29;;;;;;;0.97;0.90;;;8.00;99.90;;;;;;5065417;28;20639;-68
2023/03/20 06:00:57;;;;;;;0.80;0.80;;;8.00;99.90;;;;;;5065872;28;20664;-67
2023/03/20 06:03:24;;;;;;;0.90;0.87;;;8.10;99.90;;;;;;5066618;28;20626;-66
2023/03/20 06:05:51;;;;;;;0.97;0.80;;;8.10;99.90;;;;;;5066310;28;20746;-67
2023/03/20 06:08:17;;;;;;;0.73;0.73;;;8.10;99.90;;;;;;5065409;28;20618;-66
2023/03/20 06:10:46;;;;;;;1.77;1.23;;;8.10;99.90;;;;;;5065881;28;20740;-67
2023/03/20 06:13:12;;;;;;;0.87;0.80;;;8.00;99.90;;;;;;5065459;28;20628;-69
2023/03/20 06:15:39;;;;;;;0.50;0.50;;;8.10;99.90;;;;;;5067382;28;20657;-66
2023/03/20 06:18:06;;;;;;;0.90;0.60;;;8.10;99.90;;;;;;5066764;28;20624;-67
2023/03/20 06:20:33;;;;;;;0.53;0.53;;;8.20;99.90;;;;;;5067668;28;20648;-67
2023/03/20 06:23:00;;;;;;;1.97;1.87;;;8.20;99.90;;;;;;5067637;28;20624;-67
2023/03/20 06:25:27;;;;;;;0.40;0.40;;;8.20;99.90;;;;;;5067483;28;20645;-67
2023/03/20 06:27:56;;;;;;;0.50;0.50;;;8.30;99.90;;;;;;5066642;28;20669;-67
2023/03/20 06:30:23;;;;;;;0.43;0.43;;;8.40;99.90;;;;;;5046463;28;21224;-66
2023/03/20 06:32:50;;;;;;;0.70;0.70;;;8.50;99.90;;;;;;5047545;28;20617;-66
2023/03/20 06:35:17;;;;;;;1.03;0.80;;;8.50;99.90;;;;;;5047718;28;20632;-67
2023/03/20 06:37:44;;;;;;;1.37;1.27;;;8.50;99.90;;;;;;5065268;28;20621;-68
2023/03/20 06:40:11;;;;;;;0.47;0.40;;;8.60;99.90;;;;;;5056596;28;20634;-67
2023/03/20 06:42:38;;;;;;;3.90;1.90;;;8.70;99.90;;;;;;5065053;28;20649;-66
2023/03/20 06:45:08;;;;;;;1.23;0.87;;;8.60;99.90;;;;;;5065632;28;20628;-67
2023/03/20 06:47:34;;;;;;;1.33;1.23;;;8.60;99.90;;;;;;5066431;28;20672;-66
2023/03/20 06:50:01;;;;;;;0.70;0.63;;;8.70;99.90;;;;;;5065079;28;20634;-67
2023/03/20 06:52:28;;;;;;;1.10;1.10;;;8.60;99.90;;;;;;5066286;28;20645;-67
2023/03/20 06:54:55;;;;;;;1.80;1.60;;;8.70;99.90;;;;;;5066904;28;20614;-67
2023/03/20 06:57:23;;;;;;;1.70;1.57;;;8.70;99.90;;;;;;5065190;28;20664;-69
2023/03/20 06:59:49;;;;;;;7.40;2.60;;;8.70;99.90;;;;;;5066270;28;20670;-67
2023/03/20 07:02:18;;;;;;;1.90;1.80;;;8.80;99.90;;;;;;5065817;28;20656;-68
2023/03/20 07:04:44;;;;;;;1.17;1.00;;;8.90;99.90;;;;;;5067870;28;21212;-68
2023/03/20 07:07:12;;;;;;;1.63;1.03;;;9.00;99.90;;;;;;5065692;28;20683;-69
2023/03/20 07:09:39;;;;;;;2.10;1.90;;;9.00;99.90;;;;;;5057539;28;20637;-68
2023/03/20 07:12:13;;;;;;;1.30;1.30;;;9.10;99.90;;;;;;5065131;28;20643;-68
2023/03/20 07:14:40;;;;;;;1.93;1.70;;;9.20;99.90;;;;;;5066280;28;20638;-69
2023/03/20 07:17:07;;;;;;;0.93;0.93;;;9.30;99.90;;;;;;5066207;28;20671;-68
2023/03/20 07:19:36;;;;;;;1.37;0.80;;;9.50;99.90;;;;;;5065406;28;20710;-68
2023/03/20 07:22:06;;;;;;;2.00;0.97;;;9.50;99.90;;;;;;5065800;28;20743;-68
2023/03/20 07:24:33;;;;;;;1.13;1.13;;;9.50;99.90;;;;;;5075441;28;20944;-68
2023/03/20 07:27:00;;;;;;;1.07;1.03;;;9.60;99.90;;;;;;5065027;28;20767;-69
2023/03/20 07:29:27;;;;;;;1.17;1.07;;;9.70;99.90;;;;;;5065321;28;20738;-70
2023/03/20 07:31:54;;;;;;;0.70;0.70;;;9.70;99.90;;;;;;5066012;28;21362;-68
2023/03/20 07:34:21;;;;;;;1.27;0.83;;;9.70;99.90;;;;;;5072515;28;21545;-68
2023/03/20 07:36:49;;;;;;;1.97;0.87;;;9.70;99.90;;;;;;5082122;28;20755;-68
2023/03/20 07:39:16;;;;;;;1.40;1.30;;;9.60;99.90;;;;;;5065386;28;20621;-68
2023/03/20 07:41:44;;;;;;;0.70;0.67;;;9.70;99.90;;;;;;5059444;28;20654;-68
2023/03/20 07:44:13;;;;;;;0.77;0.70;;;9.70;99.90;;;;;;5062787;28;20629;-68
2023/03/20 07:46:40;;;;;;;0.93;0.83;;;9.80;99.90;;;;;;5065284;28;20649;-68
2023/03/20 07:49:07;;;;;;;2.07;1.97;;;9.80;99.90;;;;;;5063829;28;21198;-69
2023/03/20 07:51:34;;;;;;;0.80;0.43;;;9.80;99.90;;;;;;5059354;28;20764;-68
2023/03/20 07:54:02;;;;;;;1.03;0.90;;;9.90;99.90;;;;;;5066125;28;20658;-68
2023/03/20 07:56:30;;;;;;;1.30;1.20;;;10.10;99.90;;;;;;5065506;28;20649;-69
2023/03/20 07:58:57;;;;;;;0.77;0.77;;;10.10;99.90;;;;;;5062126;28;20617;-70
2023/03/20 08:01:24;;;;;;;2.53;1.10;;;10.00;99.90;;;;;;5065261;28;21132;-69
2023/03/20 08:03:51;;;;;;;1.77;0.87;;;9.90;99.90;;;;;;5069302;28;20628;-68
2023/03/20 08:06:18;;;;;;;1.13;0.80;;;10.10;99.90;;;;;;5075361;28;20655;-68
2023/03/20 08:08:45;;;;;;;0.53;0.53;;;10.20;99.90;;;;;;5066250;28;20770;-68
2023/03/20 08:11:13;;;;;;;1.30;1.23;;;10.20;99.90;;;;;;5072448;28;20641;-69
2023/03/20 08:13:40;;;;;;;0.70;0.70;;;10.30;99.90;;;;;;5069782;28;20632;-67
2023/03/20 08:16:07;;;;;;;0.50;0.50;;;10.60;99.90;;;;;;5058357;28;20662;-68
2023/03/20 08:18:34;;;;;;;0.83;0.67;;;10.50;99.90;;;;;;5067775;28;20637;-69
2023/03/20 08:21:01;;;;;;;1.03;0.90;;;10.50;99.90;;;;;;5069845;28;20748;-68
2023/03/20 08:23:28;;;;;;;0.60;0.60;;;10.40;99.90;;;;;;5068951;28;20629;-68
2023/03/20 08:25:55;;;;;;;0.70;0.60;;;10.30;99.90;;;;;;5069386;28;21250;-68
2023/03/20 08:28:23;;;;;;;0.40;0.40;;;10.30;99.90;;;;;;5067783;28;20746;-68
2023/03/20 08:30:50;;;;;;;0.50;0.40;;;10.20;99.90;;;;;;5068884;28;20650;-68
2023/03/20 08:33:18;;;;;;;2.03;1.23;;;10.20;99.90;;;;;;5068250;28;20633;-67
2023/03/20 08:35:44;;;;;;;0.70;0.70;;;10.20;99.90;;;;;;5068228;28;20641;-67
2023/03/20 08:38:13;;;;;;;1.03;0.67;;;10.20;99.90;;;;;;5065993;28;20636;-67
2023/03/20 08:40:40;;;;;;;0.97;0.50;;;10.20;99.90;;;;;;5068114;28;20677;-66
2023/03/20 08:43:07;;;;;;;1.27;0.60;;;10.30;99.90;;;;;;5055580;28;20716;-69
2023/03/20 08:45:35;;;;;;;3.63;1.60;;;10.40;99.90;;;;;;5068589;28;20653;-66
2023/03/20 08:48:02;;;;;;;0.97;0.93;;;10.40;99.90;;;;;;5067625;28;21268;-68
2023/03/20 08:50:30;;;;;;;0.30;0.30;;;10.40;99.90;;;;;;5068006;28;20650;-68
2023/03/20 08:52:57;;;;;;;1.13;1.13;;;10.50;99.90;;;;;;5069520;28;20625;-69
2023/03/20 08:55:23;;;;;;;1.23;0.97;;;10.70;99.90;;;;;;5068250;28;20665;-68
2023/03/20 08:57:50;;;;;;;0.60;0.60;;;10.80;99.90;;;;;;5066944;28;21447;-69
2023/03/20 09:00:19;;;;;;;1.27;0.60;;;10.90;99.90;;;;;;5067714;28;20621;-68
2023/03/20 09:02:47;;;;;;;0.83;0.67;;;11.00;99.90;;;;;;5068263;28;20733;-68
2023/03/20 09:05:14;;;;;;;1.13;1.03;;;11.00;99.90;;;;;;5068629;28;20637;-69
2023/03/20 09:07:40;;;;;;;0.60;0.43;;;10.90;99.80;;;;;;5066966;28;20691;-68
2023/03/20 09:10:09;;;;;;;0.97;0.90;;;10.90;99.50;;;;;;5066473;28;20616;-68
2023/03/20 09:12:36;;;;;;;1.10;0.80;;;10.80;97.70;;;;;;5068531;28;20629;-66
2023/03/20 09:15:05;;;;;;;0.53;0.53;;;10.90;98.60;;;;;;5067043;28;20641;-66
2023/03/20 09:17:32;;;;;;;1.57;1.00;;;11.00;98.20;;;;;;5067349;28;20643;-67
2023/03/20 09:20:00;;;;;;;1.87;1.03;;;11.20;98.50;;;;;;5065628;28;20636;-67
2023/03/20 09:22:27;;;;;;;1.93;0.87;;;11.20;98.00;;;;;;5081618;28;20656;-67
2023/03/20 09:24:54;;;;;;;0.50;0.40;;;11.40;99.10;;;;;;5069504;28;20974;-66
2023/03/20 09:27:21;;;;;;;0.40;0.30;;;11.40;98.90;;;;;;5067479;28;20718;-67
2023/03/20 09:29:48;;;;;;;1.20;0.97;;;11.40;99.20;;;;;;5067562;28;20675;-66
2023/03/20 09:32:15;;;;;;;1.70;1.03;;;11.40;98.40;;;;;;5067739;28;20656;-67
2023/03/20 09:34:42;;;;;;;0.83;0.67;;;11.30;98.60;;;;;;5067294;28;21113;-69
2023/03/20 09:37:11;;;;;;;1.63;1.20;;;11.20;98.20;;;;;;5067404;28;21014;-67
2023/03/20 09:39:37;;;;;;;1.30;0.80;;;11.10;97.90;;;;;;5066043;28;20639;-66
2023/03/20 09:42:17;;;;;;;0.73;0.70;;;11.10;98.10;;;;;;5050078;28;20650;-66
2023/03/20 09:44:55;;;;;;;0.50;0.50;;;11.20;98.40;;;;;;5065450;28;20625;-67
2023/03/20 09:47:33;;;;;;;0.50;0.50;;;11.50;98.50;;;;;;5066814;28;21249;-67
2023/03/20 09:50:13;;;;;;;1.90;1.77;;;11.80;99.90;;;;;;5065419;28;21423;-66
2023/03/20 09:52:45;;;;;;;1.50;1.40;;;11.70;97.20;;;;;;5069834;28;21190;-67
2023/03/20 09:55:15;;;;;;;0.53;0.47;;;12.20;97.40;;;;;;5087839;28;20616;-67
2023/03/20 09:57:43;;;;;;;0.57;0.57;;;11.70;96.00;;;;;;5067176;28;20630;-67
2023/03/20 10:00:16;;;;;;;0.77;0.60;;;11.80;96.30;;;;;;5065794;28;20628;-67
2023/03/20 10:02:48;;;;;;;0.80;0.80;;;11.70;96.20;;;;;;5066690;28;20625;-66
2023/03/20 10:05:21;;;;;;;0.80;0.80;;;11.70;97.00;;;;;;5067021;28;20652;-67
2023/03/20 10:07:50;;;;;;;0.90;0.73;;;11.80;97.50;;;;;;5065913;28;20991;-66
2023/03/20 10:10:19;;;;;;;0.60;0.60;;;11.80;95.10;;;;;;5065911;28;20626;-67
2023/03/20 10:13:02;;;;;;;3.70;1.47;;;12.00;96.50;;;;;;5066535;28;20658;-66
2023/03/20 10:15:45;;;;;;;0.80;0.63;;;12.10;96.40;;;;;;5063934;28;20660;-67
2023/03/20 10:18:19;;;;;;;0.90;0.80;;;12.10;95.70;;;;;;5065914;28;20630;-66
2023/03/20 10:20:55;;;;;;;0.97;0.90;;;12.20;96.10;;;;;;5066958;28;21253;-67
2023/03/20 10:23:33;;;;;;;0.73;0.73;;;12.40;96.00;;;;;;5065666;28;20613;-66
2023/03/20 10:26:05;;;;;;;1.53;0.93;;;12.10;94.50;;;;;;5066376;28;20664;-67
2023/03/20 10:28:36;;;;;;;1.37;0.80;;;12.30;95.70;;;;;;5064598;28;20675;-66
2023/03/20 10:31:18;;;;;;;0.70;0.60;;;12.40;95.40;;;;;;5054382;28;20656;-67
2023/03/20 10:33:57;;;;;;;1.33;1.03;;;12.40;95.80;;;;;;5068662;28;21183;-67
2023/03/20 10:36:43;;;;;;;1.00;0.90;;;12.30;95.20;;;;;;5065452;28;20651;-66
2023/03/20 10:39:17;;;;;;;0.60;0.53;;;12.10;94.60;;;;;;5064898;28;20621;-67
2023/03/20 10:41:51;;;;;;;1.00;0.87;;;12.00;94.70;;;;;;5063091;28;21256;-67
2023/03/20 10:44:26;;;;;;;0.70;0.53;;;11.90;95.80;;;;;;5066276;28;20633;-66
2023/03/20 10:46:56;;;;;;;1.23;1.07;;;11.70;94.50;;;;;;5066570;28;20655;-67
2023/03/20 10:49:30;;;;;;;0.40;0.40;;;11.60;94.60;;;;;;5065567;28;20673;-66
2023/03/20 10:52:01;;;;;;;0.50;0.50;;;11.60;94.30;;;;;;5066508;28;20645;-67
2023/03/20 10:54:32;;;;;;;2.50;1.10;;;11.50;94.10;;;;;;5066178;28;20637;-67
2023/03/20 10:57:02;;;;;;;4.40;1.40;;;11.60;95.20;;;;;;5066095;28;20652;-67
2023/03/20 10:59:34;;;;;;;3.33;2.60;;;11.70;95.20;;;;;;5065200;28;20657;-65
2023/03/20 11:02:00;;;;;;;1.57;1.30;;;11.60;95.40;;;;;;5066724;28;20658;-66
2023/03/20 11:04:27;;;;;;;0.80;0.53;;;11.70;95.60;;;;;;5063048;28;20636;-65
2023/03/20 11:06:58;;;;;;;1.30;1.10;;;11.70;95.60;;;;;;5064255;28;20830;-65
2023/03/20 11:09:25;;;;;;;1.37;0.70;;;11.80;96.20;;;;;;5065891;28;20239;-66
2023/03/20 11:11:57;;;;;;;1.23;0.70;;;11.90;95.80;;;;;;5077181;28;20687;-66
2023/03/20 11:14:25;;;;;;;0.73;0.60;;;11.90;95.90;;;;;;5086635;28;20640;-66
2023/03/20 11:16:54;;;;;;;1.03;0.60;;;12.00;96.20;;;;;;5069938;28;20745;-65
2023/03/20 11:19:22;;;;;;;1.43;1.10;;;12.10;95.40;;;;;;5064799;28;20725;-66
2023/03/20 11:21:51;;;;;;;1.30;0.97;;;12.20;95.30;;;;;;5077167;28;20654;-66
2023/03/20 11:24:26;;;;;;;1.27;0.77;;;12.10;95.00;;;;;;5068497;28;20724;-66
2023/03/20 11:27:04;;;;;;;0.50;0.50;;;11.90;95.00;;;;;;5066466;28;20660;-66
2023/03/20 11:29:34;;;;;;;1.13;1.03;;;11.90;95.90;;;;;;5065198;28;21075;-69
2023/03/20 11:32:06;;;;;;;1.10;1.10;;;11.90;95.50;;;;;;5075861;28;20657;-68
2023/03/20 11:34:36;;;;;;;0.50;0.50;;;11.70;95.10;;;;;;5067024;28;20626;-68
2023/03/20 11:37:19;;;;;;;0.97;0.70;;;11.70;95.40;;;;;;5066481;28;20871;-67
2023/03/20 11:39:57;;;;;;;0.83;0.70;;;11.70;95.90;;;;;;5065520;28;20633;-66
2023/03/20 11:42:27;;;;;;;1.20;1.10;;;11.50;98.30;;;;;;5055281;28;20678;-67
2023/03/20 11:45:02;;;;;;;1.40;1.30;;;11.70;96.40;;;;;;5050080;28;20618;-67
2023/03/20 11:47:33;;;;;;;1.00;1.00;;;11.70;97.10;;;;;;5061271;28;21588;-67
2023/03/20 11:50:02;;;;;;;2.53;1.30;;;11.60;97.40;;;;;;5068892;28;20672;-67
2023/03/20 11:52:32;;;;;;;1.85;1.70;;;11.50;97.70;;;;;;5081897;28;20840;-70
2023/03/20 11:55:02;;;;;;;2.00;1.80;;;11.50;98.00;;;;;;5069779;28;20195;-68
2023/03/20 11:57:33;;;;;;;4.20;2.00;;;11.60;98.20;;;;;;5069717;28;20691;-68
2023/03/20 12:00:06;;;;;;;1.13;1.07;;;11.70;98.30;;;;;;5068988;28;20621;-68
2023/03/20 12:02:35;;;;;;;2.87;2.07;;;11.70;97.90;;;;;;5068788;28;20617;-68
2023/03/20 12:05:01;;;;;;;1.20;1.13;;;11.80;97.90;;;;;;5069560;28;20609;-66
2023/03/20 12:07:32;;;;;;;2.27;2.07;;;11.90;97.00;;;;;;5069044;28;20672;-67
2023/03/20 12:10:03;;;;;;;1.27;0.73;;;11.70;97.10;;;;;;5069104;28;20679;-68
2023/03/20 12:12:39;;;;;;;1.63;1.37;;;11.90;97.90;;;;;;5073263;28;20658;-67
2023/03/20 12:15:16;;;;;;;2.07;1.13;;;12.10;97.90;;;;;;5066859;28;20643;-68
2023/03/20 12:17:50;;;;;;;0.93;0.83;;;12.20;97.50;;;;;;5067818;28;20915;-69
2023/03/20 12:20:26;;;;;;;1.77;1.40;;;12.60;97.50;;;;;;5065820;28;20630;-68
2023/03/20 12:23:01;;;;;;;1.67;1.50;;;12.80;96.60;;;;;;5069366;28;20612;-66
2023/03/20 12:25:36;;;;;;;1.60;1.50;;;12.80;96.40;;;;;;5068872;28;20649;-68
2023/03/20 12:28:12;;;;;;;2.50;1.70;;;12.70;95.50;;;;;;5068205;28;20625;-69
2023/03/20 12:30:50;;;;;;;1.67;1.10;;;12.80;96.30;;;;;;5068929;28;20755;-66
2023/03/20 12:33:21;;;;;;;1.83;1.63;;;12.90;95.30;;;;;;5070794;28;20629;-69
2023/03/20 12:35:51;;;;;;;0.97;0.97;;;13.00;95.30;;;;;;5055275;28;20691;-68
2023/03/20 12:38:26;;;;;;;1.90;1.70;;;13.00;95.10;;;;;;5068009;28;21300;-68
2023/03/20 12:40:58;;;;;;;2.53;1.00;;;13.20;94.30;;;;;;5068962;28;21107;-68
2023/03/20 12:43:30;;;;;;;1.73;1.10;;;13.30;94.60;;;;;;5073518;28;20633;-68
2023/03/20 12:46:08;;;;;;;1.47;1.33;;;13.40;94.50;;;;;;5069243;28;20764;-68
2023/03/20 12:48:50;;;;;;;1.37;1.20;;;13.40;94.30;;;;;;5067810;28;20660;-68
2023/03/20 12:51:21;;;;;;;1.80;1.43;;;13.40;94.10;;;;;;5068293;28;20680;-68
2023/03/20 12:53:58;;;;;;;1.30;1.20;;;13.30;94.30;;;;;;5065070;28;20638;-68
2023/03/20 12:56:45;;;;;;;0.70;0.60;;;13.10;93.10;;;;;;5068440;28;20657;-68
2023/03/20 12:59:20;;;;;;;1.83;1.17;;;12.50;93.00;;;;;;5066383;28;20622;-67
2023/03/20 13:01:53;;;;;;;1.97;1.63;;;12.30;93.80;;;;;;5068591;28;21221;-68
2023/03/20 13:04:42;;;;;;;2.23;1.30;;;12.30;94.10;;;;;;5068431;28;20685;-68
2023/03/20 13:07:18;;;;;;;3.27;2.03;;;12.40;94.80;;;;;;5068352;28;20645;-68
2023/03/20 13:10:12;;;;;;;3.07;2.20;;;12.50;95.00;;;;;;5066979;28;20672;-69